sensor_id;sensor_type;location;lat;lon;timestamp;P1;durP1;ratioP1;P2;durP2;ratioP2
34234;SDS011;20500;49.856;20.290;2022-11-15T00:02:54;30.00;;;17.60;;
34234;SDS011;20500;49.856;20.290;2022-11-15T00:06:02;27.00;;;17.60;;
34234;SDS011;20500;49.856;20.290;2022-11-15T00:09:08;27.60;;;17.80;;
34234;SDS011;20500;49.856;20.290;2022-11-15T00:12:14;30.50;;;17.10;;
34234;SDS011;20500;49.856;20.290;2022-11-15T00:15:19;32.60;;;18.10;;
34234;SDS011;20500;49.856;20.290;2022-11-15T00:18:25;28.60;;;17.00;;
34234;SDS011;20500;49.856;20.290;2022-11-15T00:24:36;25.70;;;17.30;;
34234;SDS011;20500;49.856;20.290;2022-11-15T00:27:41;27.10;;;18.20;;
34234;SDS011;20500;49.856;20.290;2022-11-15T00:33:52;26.00;;;17.50;;
34234;SDS011;20500;49.856;20.290;2022-11-15T00:36:57;27.10;;;17.40;;
34234;SDS011;20500;49.856;20.290;2022-11-15T00:40:03;27.60;;;17.90;;
34234;SDS011;20500;49.856;20.290;2022-11-15T00:43:10;24.10;;;16.40;;
34234;SDS011;20500;49.856;20.290;2022-11-15T00:46:16;30.00;;;17.50;;
34234;SDS011;20500;49.856;20.290;2022-11-15T00:49:21;26.70;;;17.30;;
34234;SDS011;20500;49.856;20.290;2022-11-15T00:52:27;24.70;;;16.60;;
34234;SDS011;20500;49.856;20.290;2022-11-15T00:55:33;26.30;;;17.30;;
34234;SDS011;20500;49.856;20.290;2022-11-15T00:58:39;28.70;;;17.70;;
34234;SDS011;20500;49.856;20.290;2022-11-15T01:01:44;28.30;;;17.90;;
34234;SDS011;20500;49.856;20.290;2022-11-15T01:04:50;28.10;;;17.50;;
34234;SDS011;20500;49.856;20.290;2022-11-15T01:07:56;27.80;;;17.90;;
34234;SDS011;20500;49.856;20.290;2022-11-15T01:11:02;24.30;;;14.50;;
34234;SDS011;20500;49.856;20.290;2022-11-15T01:14:10;26.80;;;17.10;;
34234;SDS011;20500;49.856;20.290;2022-11-15T01:17:16;26.50;;;17.70;;
34234;SDS011;20500;49.856;20.290;2022-11-15T01:20:21;25.30;;;17.00;;
34234;SDS011;20500;49.856;20.290;2022-11-15T01:23:27;28.00;;;18.10;;
34234;SDS011;20500;49.856;20.290;2022-11-15T01:26:34;24.70;;;16.90;;
34234;SDS011;20500;49.856;20.290;2022-11-15T01:29:39;27.20;;;17.70;;
34234;SDS011;20500;49.856;20.290;2022-11-15T01:32:45;25.80;;;16.90;;
34234;SDS011;20500;49.856;20.290;2022-11-15T01:35:51;26.00;;;17.80;;
34234;SDS011;20500;49.856;20.290;2022-11-15T01:38:57;27.10;;;16.70;;
34234;SDS011;20500;49.856;20.290;2022-11-15T01:42:04;29.80;;;16.80;;
34234;SDS011;20500;49.856;20.290;2022-11-15T01:45:11;23.70;;;16.40;;
34234;SDS011;20500;49.856;20.290;2022-11-15T01:48:19;26.10;;;16.20;;
34234;SDS011;20500;49.856;20.290;2022-11-15T01:51:26;28.90;;;16.40;;
34234;SDS011;20500;49.856;20.290;2022-11-15T01:54:35;22.20;;;14.60;;
34234;SDS011;20500;49.856;20.290;2022-11-15T01:57:42;24.30;;;16.00;;
34234;SDS011;20500;49.856;20.290;2022-11-15T02:00:50;22.00;;;15.50;;
34234;SDS011;20500;49.856;20.290;2022-11-15T02:03:58;25.20;;;15.80;;
34234;SDS011;20500;49.856;20.290;2022-11-15T02:07:06;23.20;;;15.10;;
34234;SDS011;20500;49.856;20.290;2022-11-15T02:10:17;25.90;;;15.00;;
34234;SDS011;20500;49.856;20.290;2022-11-15T02:13:24;23.50;;;15.50;;
34234;SDS011;20500;49.856;20.290;2022-11-15T02:16:34;21.20;;;13.90;;
34234;SDS011;20500;49.856;20.290;2022-11-15T02:19:53;20.50;;;14.00;;
34234;SDS011;20500;49.856;20.290;2022-11-15T02:23:36;23.10;;;14.50;;
34234;SDS011;20500;49.856;20.290;2022-11-15T02:27:22;21.40;;;14.40;;
34234;SDS011;20500;49.856;20.290;2022-11-15T02:30:44;22.90;;;14.00;;
34234;SDS011;20500;49.856;20.290;2022-11-15T02:33:55;22.50;;;14.60;;
34234;SDS011;20500;49.856;20.290;2022-11-15T02:37:10;25.70;;;13.00;;
34234;SDS011;20500;49.856;20.290;2022-11-15T02:40:23;21.00;;;13.30;;
34234;SDS011;20500;49.856;20.290;2022-11-15T02:43:39;23.80;;;13.50;;
34234;SDS011;20500;49.856;20.290;2022-11-15T02:47:02;20.90;;;12.70;;
34234;SDS011;20500;49.856;20.290;2022-11-15T02:50:18;20.20;;;12.10;;
34234;SDS011;20500;49.856;20.290;2022-11-15T02:53:28;20.30;;;13.30;;
34234;SDS011;20500;49.856;20.290;2022-11-15T02:56:34;23.30;;;13.00;;
34234;SDS011;20500;49.856;20.290;2022-11-15T02:59:59;20.60;;;12.70;;
34234;SDS011;20500;49.856;20.290;2022-11-15T03:03:18;19.70;;;12.30;;
34234;SDS011;20500;49.856;20.290;2022-11-15T03:06:48;19.10;;;12.80;;
34234;SDS011;20500;49.856;20.290;2022-11-15T03:10:00;20.40;;;12.30;;
34234;SDS011;20500;49.856;20.290;2022-11-15T03:13:12;21.10;;;13.20;;
34234;SDS011;20500;49.856;20.290;2022-11-15T03:16:28;19.40;;;12.80;;
34234;SDS011;20500;49.856;20.290;2022-11-15T03:19:40;19.50;;;12.70;;
34234;SDS011;20500;49.856;20.290;2022-11-15T03:22:50;19.80;;;12.90;;
34234;SDS011;20500;49.856;20.290;2022-11-15T03:25:59;19.60;;;12.00;;
34234;SDS011;20500;49.856;20.290;2022-11-15T03:29:09;19.40;;;12.70;;
34234;SDS011;20500;49.856;20.290;2022-11-15T03:32:20;19.90;;;11.70;;
34234;SDS011;20500;49.856;20.290;2022-11-15T03:35:31;18.80;;;11.30;;
34234;SDS011;20500;49.856;20.290;2022-11-15T03:38:41;18.90;;;11.80;;
34234;SDS011;20500;49.856;20.290;2022-11-15T03:41:49;18.70;;;11.30;;
34234;SDS011;20500;49.856;20.290;2022-11-15T03:45:05;18.10;;;10.80;;
34234;SDS011;20500;49.856;20.290;2022-11-15T03:48:18;18.40;;;11.00;;
34234;SDS011;20500;49.856;20.290;2022-11-15T03:51:28;17.50;;;11.30;;
34234;SDS011;20500;49.856;20.290;2022-11-15T03:54:34;17.40;;;11.20;;
34234;SDS011;20500;49.856;20.290;2022-11-15T03:57:40;19.20;;;11.80;;
34234;SDS011;20500;49.856;20.290;2022-11-15T04:00:46;17.60;;;11.10;;
34234;SDS011;20500;49.856;20.290;2022-11-15T04:03:52;18.50;;;11.80;;
34234;SDS011;20500;49.856;20.290;2022-11-15T04:06:58;16.80;;;11.20;;
34234;SDS011;20500;49.856;20.290;2022-11-15T04:10:04;19.70;;;11.80;;
34234;SDS011;20500;49.856;20.290;2022-11-15T04:13:11;19.00;;;12.10;;
34234;SDS011;20500;49.856;20.290;2022-11-15T04:16:17;18.70;;;11.90;;
34234;SDS011;20500;49.856;20.290;2022-11-15T04:19:23;18.80;;;12.30;;
34234;SDS011;20500;49.856;20.290;2022-11-15T04:22:53;18.10;;;12.00;;
34234;SDS011;20500;49.856;20.290;2022-11-15T04:26:17;18.70;;;12.40;;
34234;SDS011;20500;49.856;20.290;2022-11-15T04:29:25;18.60;;;12.20;;
34234;SDS011;20500;49.856;20.290;2022-11-15T04:32:40;18.20;;;12.20;;
34234;SDS011;20500;49.856;20.290;2022-11-15T04:35:45;16.50;;;11.40;;
34234;SDS011;20500;49.856;20.290;2022-11-15T04:39:12;18.50;;;12.30;;
34234;SDS011;20500;49.856;20.290;2022-11-15T04:42:18;17.20;;;11.90;;
34234;SDS011;20500;49.856;20.290;2022-11-15T04:45:24;16.80;;;11.20;;
34234;SDS011;20500;49.856;20.290;2022-11-15T04:48:30;16.80;;;11.40;;
34234;SDS011;20500;49.856;20.290;2022-11-15T04:51:35;18.40;;;12.20;;
34234;SDS011;20500;49.856;20.290;2022-11-15T04:54:41;17.20;;;11.80;;
34234;SDS011;20500;49.856;20.290;2022-11-15T04:57:47;17.50;;;11.30;;
34234;SDS011;20500;49.856;20.290;2022-11-15T05:01:05;17.90;;;11.80;;
34234;SDS011;20500;49.856;20.290;2022-11-15T05:04:12;18.90;;;11.60;;
34234;SDS011;20500;49.856;20.290;2022-11-15T05:07:24;17.50;;;10.80;;
34234;SDS011;20500;49.856;20.290;2022-11-15T05:10:30;19.30;;;10.90;;
34234;SDS011;20500;49.856;20.290;2022-11-15T05:13:36;17.20;;;11.20;;
34234;SDS011;20500;49.856;20.290;2022-11-15T05:16:42;17.10;;;11.10;;
34234;SDS011;20500;49.856;20.290;2022-11-15T05:19:47;17.30;;;11.50;;
34234;SDS011;20500;49.856;20.290;2022-11-15T05:22:54;18.00;;;10.90;;
34234;SDS011;20500;49.856;20.290;2022-11-15T05:26:00;17.00;;;10.80;;
34234;SDS011;20500;49.856;20.290;2022-11-15T05:29:11;17.50;;;11.10;;
34234;SDS011;20500;49.856;20.290;2022-11-15T05:32:16;17.00;;;11.60;;
34234;SDS011;20500;49.856;20.290;2022-11-15T05:35:27;19.20;;;11.50;;
34234;SDS011;20500;49.856;20.290;2022-11-15T05:38:38;16.40;;;10.40;;
34234;SDS011;20500;49.856;20.290;2022-11-15T05:41:44;18.10;;;11.50;;
34234;SDS011;20500;49.856;20.290;2022-11-15T05:44:52;20.00;;;12.90;;
34234;SDS011;20500;49.856;20.290;2022-11-15T05:47:58;18.30;;;12.20;;
34234;SDS011;20500;49.856;20.290;2022-11-15T05:51:09;17.60;;;11.20;;
34234;SDS011;20500;49.856;20.290;2022-11-15T05:54:18;16.70;;;11.60;;
34234;SDS011;20500;49.856;20.290;2022-11-15T05:57:26;19.70;;;12.50;;
34234;SDS011;20500;49.856;20.290;2022-11-15T06:00:32;18.50;;;12.10;;
34234;SDS011;20500;49.856;20.290;2022-11-15T06:03:38;20.40;;;11.90;;
34234;SDS011;20500;49.856;20.290;2022-11-15T06:06:43;28.40;;;16.10;;
34234;SDS011;20500;49.856;20.290;2022-11-15T06:09:49;26.50;;;15.20;;
34234;SDS011;20500;49.856;20.290;2022-11-15T06:12:59;23.80;;;13.90;;
34234;SDS011;20500;49.856;20.290;2022-11-15T06:16:06;26.80;;;14.70;;
34234;SDS011;20500;49.856;20.290;2022-11-15T06:19:12;22.20;;;13.40;;
34234;SDS011;20500;49.856;20.290;2022-11-15T06:22:17;23.50;;;15.10;;
34234;SDS011;20500;49.856;20.290;2022-11-15T06:25:23;24.10;;;14.50;;
34234;SDS011;20500;49.856;20.290;2022-11-15T06:28:29;20.20;;;13.40;;
34234;SDS011;20500;49.856;20.290;2022-11-15T06:31:36;30.30;;;14.30;;
34234;SDS011;20500;49.856;20.290;2022-11-15T06:34:41;15.00;;;10.20;;
34234;SDS011;20500;49.856;20.290;2022-11-15T06:37:47;20.40;;;13.00;;
34234;SDS011;20500;49.856;20.290;2022-11-15T06:40:52;19.30;;;12.40;;
34234;SDS011;20500;49.856;20.290;2022-11-15T06:43:58;19.30;;;12.20;;
34234;SDS011;20500;49.856;20.290;2022-11-15T06:47:04;21.70;;;13.20;;
34234;SDS011;20500;49.856;20.290;2022-11-15T06:50:10;20.20;;;13.10;;
34234;SDS011;20500;49.856;20.290;2022-11-15T06:53:16;22.50;;;13.90;;
34234;SDS011;20500;49.856;20.290;2022-11-15T06:56:22;21.30;;;13.50;;
34234;SDS011;20500;49.856;20.290;2022-11-15T07:02:40;31.20;;;18.50;;
34234;SDS011;20500;49.856;20.290;2022-11-15T07:05:51;23.30;;;15.60;;
34234;SDS011;20500;49.856;20.290;2022-11-15T07:08:58;19.10;;;12.90;;
34234;SDS011;20500;49.856;20.290;2022-11-15T07:12:06;24.20;;;14.30;;
34234;SDS011;20500;49.856;20.290;2022-11-15T07:18:16;21.60;;;14.20;;
34234;SDS011;20500;49.856;20.290;2022-11-15T07:21:22;21.50;;;14.10;;
34234;SDS011;20500;49.856;20.290;2022-11-15T07:24:29;21.00;;;14.40;;
34234;SDS011;20500;49.856;20.290;2022-11-15T07:27:35;20.90;;;14.00;;
34234;SDS011;20500;49.856;20.290;2022-11-15T07:30:41;21.30;;;14.50;;
34234;SDS011;20500;49.856;20.290;2022-11-15T07:33:47;17.80;;;12.80;;
34234;SDS011;20500;49.856;20.290;2022-11-15T07:36:53;21.00;;;14.40;;
34234;SDS011;20500;49.856;20.290;2022-11-15T07:39:58;22.20;;;15.40;;
34234;SDS011;20500;49.856;20.290;2022-11-15T07:43:05;20.80;;;13.70;;
34234;SDS011;20500;49.856;20.290;2022-11-15T07:46:12;22.60;;;13.30;;
34234;SDS011;20500;49.856;20.290;2022-11-15T07:49:18;16.30;;;11.00;;
34234;SDS011;20500;49.856;20.290;2022-11-15T07:52:24;20.40;;;13.60;;
34234;SDS011;20500;49.856;20.290;2022-11-15T07:55:30;24.40;;;14.50;;
34234;SDS011;20500;49.856;20.290;2022-11-15T07:58:36;23.50;;;15.80;;
34234;SDS011;20500;49.856;20.290;2022-11-15T08:01:41;25.20;;;16.60;;
34234;SDS011;20500;49.856;20.290;2022-11-15T08:04:47;22.20;;;15.10;;
34234;SDS011;20500;49.856;20.290;2022-11-15T08:07:54;23.80;;;15.80;;
34234;SDS011;20500;49.856;20.290;2022-11-15T08:11:00;23.90;;;16.50;;
34234;SDS011;20500;49.856;20.290;2022-11-15T08:14:06;24.60;;;15.80;;
34234;SDS011;20500;49.856;20.290;2022-11-15T08:17:12;26.20;;;17.20;;
34234;SDS011;20500;49.856;20.290;2022-11-15T08:20:18;24.30;;;16.80;;
34234;SDS011;20500;49.856;20.290;2022-11-15T08:23:24;23.10;;;16.10;;
34234;SDS011;20500;49.856;20.290;2022-11-15T08:26:30;23.60;;;15.90;;
34234;SDS011;20500;49.856;20.290;2022-11-15T08:29:36;22.70;;;15.20;;
34234;SDS011;20500;49.856;20.290;2022-11-15T08:32:42;21.30;;;15.70;;
34234;SDS011;20500;49.856;20.290;2022-11-15T08:35:48;25.70;;;18.00;;
34234;SDS011;20500;49.856;20.290;2022-11-15T08:38:53;28.50;;;19.10;;
34234;SDS011;20500;49.856;20.290;2022-11-15T08:41:59;18.90;;;14.00;;
34234;SDS011;20500;49.856;20.290;2022-11-15T08:45:06;25.60;;;18.40;;
34234;SDS011;20500;49.856;20.290;2022-11-15T08:48:13;32.00;;;20.90;;
34234;SDS011;20500;49.856;20.290;2022-11-15T08:51:19;34.00;;;23.50;;
34234;SDS011;20500;49.856;20.290;2022-11-15T08:54:24;33.10;;;23.10;;
34234;SDS011;20500;49.856;20.290;2022-11-15T08:57:30;25.80;;;17.10;;
34234;SDS011;20500;49.856;20.290;2022-11-15T09:00:36;28.90;;;21.20;;
34234;SDS011;20500;49.856;20.290;2022-11-15T09:03:42;31.00;;;22.40;;
34234;SDS011;20500;49.856;20.290;2022-11-15T09:06:47;30.80;;;22.10;;
34234;SDS011;20500;49.856;20.290;2022-11-15T09:09:53;27.80;;;20.90;;
34234;SDS011;20500;49.856;20.290;2022-11-15T09:12:59;27.90;;;20.70;;
34234;SDS011;20500;49.856;20.290;2022-11-15T09:16:05;31.50;;;22.10;;
34234;SDS011;20500;49.856;20.290;2022-11-15T09:19:11;29.50;;;21.20;;
34234;SDS011;20500;49.856;20.290;2022-11-15T09:22:20;30.20;;;22.30;;
34234;SDS011;20500;49.856;20.290;2022-11-15T09:25:26;32.20;;;22.20;;
34234;SDS011;20500;49.856;20.290;2022-11-15T09:28:32;30.40;;;22.80;;
34234;SDS011;20500;49.856;20.290;2022-11-15T09:31:39;27.50;;;19.40;;
34234;SDS011;20500;49.856;20.290;2022-11-15T09:34:45;28.00;;;19.90;;
34234;SDS011;20500;49.856;20.290;2022-11-15T09:37:51;29.30;;;20.80;;
34234;SDS011;20500;49.856;20.290;2022-11-15T09:41:08;30.10;;;20.10;;
34234;SDS011;20500;49.856;20.290;2022-11-15T09:44:28;28.30;;;19.60;;
34234;SDS011;20500;49.856;20.290;2022-11-15T09:51:24;26.50;;;19.50;;
34234;SDS011;20500;49.856;20.290;2022-11-15T09:54:33;25.60;;;17.50;;
34234;SDS011;20500;49.856;20.290;2022-11-15T09:57:57;25.90;;;19.10;;
34234;SDS011;20500;49.856;20.290;2022-11-15T10:01:11;23.10;;;17.00;;
34234;SDS011;20500;49.856;20.290;2022-11-15T10:04:22;23.60;;;17.50;;
34234;SDS011;20500;49.856;20.290;2022-11-15T10:07:31;25.10;;;17.60;;
34234;SDS011;20500;49.856;20.290;2022-11-15T10:10:44;24.60;;;18.30;;
34234;SDS011;20500;49.856;20.290;2022-11-15T10:14:13;27.50;;;19.40;;
34234;SDS011;20500;49.856;20.290;2022-11-15T10:17:29;23.40;;;16.50;;
34234;SDS011;20500;49.856;20.290;2022-11-15T10:20:48;23.30;;;16.40;;
34234;SDS011;20500;49.856;20.290;2022-11-15T10:23:58;23.30;;;16.10;;
34234;SDS011;20500;49.856;20.290;2022-11-15T10:27:08;22.50;;;15.70;;
34234;SDS011;20500;49.856;20.290;2022-11-15T10:30:20;22.20;;;15.20;;
34234;SDS011;20500;49.856;20.290;2022-11-15T10:33:29;21.40;;;14.90;;
34234;SDS011;20500;49.856;20.290;2022-11-15T10:36:37;24.70;;;16.50;;
34234;SDS011;20500;49.856;20.290;2022-11-15T10:40:02;24.80;;;17.40;;
34234;SDS011;20500;49.856;20.290;2022-11-15T10:43:19;24.00;;;17.70;;
34234;SDS011;20500;49.856;20.290;2022-11-15T10:46:28;23.30;;;17.50;;
34234;SDS011;20500;49.856;20.290;2022-11-15T10:53:31;22.20;;;16.40;;
34234;SDS011;20500;49.856;20.290;2022-11-15T10:56:47;20.70;;;15.00;;
34234;SDS011;20500;49.856;20.290;2022-11-15T10:59:55;20.20;;;14.20;;
34234;SDS011;20500;49.856;20.290;2022-11-15T11:03:04;21.00;;;14.80;;
34234;SDS011;20500;49.856;20.290;2022-11-15T11:06:25;24.20;;;15.90;;
34234;SDS011;20500;49.856;20.290;2022-11-15T11:12:36;21.40;;;16.20;;
34234;SDS011;20500;49.856;20.290;2022-11-15T11:15:42;19.10;;;13.70;;
34234;SDS011;20500;49.856;20.290;2022-11-15T11:18:52;18.20;;;13.90;;
34234;SDS011;20500;49.856;20.290;2022-11-15T11:22:11;18.80;;;13.60;;
34234;SDS011;20500;49.856;20.290;2022-11-15T11:25:25;17.70;;;12.80;;
34234;SDS011;20500;49.856;20.290;2022-11-15T11:28:39;19.30;;;13.50;;
34234;SDS011;20500;49.856;20.290;2022-11-15T11:31:54;18.50;;;13.40;;
34234;SDS011;20500;49.856;20.290;2022-11-15T11:35:08;19.00;;;13.60;;
34234;SDS011;20500;49.856;20.290;2022-11-15T11:38:22;18.90;;;13.60;;
34234;SDS011;20500;49.856;20.290;2022-11-15T11:41:46;18.50;;;13.80;;
34234;SDS011;20500;49.856;20.290;2022-11-15T11:44:58;18.50;;;13.50;;
34234;SDS011;20500;49.856;20.290;2022-11-15T11:48:11;20.10;;;13.80;;
34234;SDS011;20500;49.856;20.290;2022-11-15T11:51:24;20.00;;;13.10;;
34234;SDS011;20500;49.856;20.290;2022-11-15T11:54:41;18.20;;;12.70;;
34234;SDS011;20500;49.856;20.290;2022-11-15T11:57:53;20.10;;;14.20;;
34234;SDS011;20500;49.856;20.290;2022-11-15T12:01:10;20.50;;;14.40;;
34234;SDS011;20500;49.856;20.290;2022-11-15T12:04:20;20.70;;;15.30;;
34234;SDS011;20500;49.856;20.290;2022-11-15T12:07:30;21.40;;;15.60;;
34234;SDS011;20500;49.856;20.290;2022-11-15T12:10:38;23.90;;;17.50;;
34234;SDS011;20500;49.856;20.290;2022-11-15T12:13:50;24.10;;;18.50;;
34234;SDS011;20500;49.856;20.290;2022-11-15T12:17:00;25.80;;;18.80;;
34234;SDS011;20500;49.856;20.290;2022-11-15T12:20:14;25.40;;;19.20;;
34234;SDS011;20500;49.856;20.290;2022-11-15T12:23:23;25.20;;;19.40;;
34234;SDS011;20500;49.856;20.290;2022-11-15T12:26:33;26.50;;;19.40;;
34234;SDS011;20500;49.856;20.290;2022-11-15T12:29:46;26.60;;;20.40;;
34234;SDS011;20500;49.856;20.290;2022-11-15T12:32:56;28.10;;;21.20;;
34234;SDS011;20500;49.856;20.290;2022-11-15T12:36:04;27.10;;;20.30;;
34234;SDS011;20500;49.856;20.290;2022-11-15T12:39:14;29.90;;;20.30;;
34234;SDS011;20500;49.856;20.290;2022-11-15T12:42:36;26.80;;;19.40;;
34234;SDS011;20500;49.856;20.290;2022-11-15T12:48:51;28.20;;;20.60;;
34234;SDS011;20500;49.856;20.290;2022-11-15T12:52:08;27.30;;;21.20;;
34234;SDS011;20500;49.856;20.290;2022-11-15T12:55:30;27.20;;;20.20;;
34234;SDS011;20500;49.856;20.290;2022-11-15T12:58:42;28.40;;;20.60;;
34234;SDS011;20500;49.856;20.290;2022-11-15T13:01:54;29.70;;;21.40;;
34234;SDS011;20500;49.856;20.290;2022-11-15T13:09:01;25.80;;;19.90;;
34234;SDS011;20500;49.856;20.290;2022-11-15T13:12:08;26.70;;;19.60;;
34234;SDS011;20500;49.856;20.290;2022-11-15T13:15:40;30.20;;;20.90;;
34234;SDS011;20500;49.856;20.290;2022-11-15T13:18:59;33.90;;;23.70;;
34234;SDS011;20500;49.856;20.290;2022-11-15T13:22:10;30.50;;;21.80;;
34234;SDS011;20500;49.856;20.290;2022-11-15T13:25:44;34.60;;;24.40;;
34234;SDS011;20500;49.856;20.290;2022-11-15T13:28:58;39.60;;;26.70;;
34234;SDS011;20500;49.856;20.290;2022-11-15T13:32:09;32.00;;;23.30;;
34234;SDS011;20500;49.856;20.290;2022-11-15T13:35:20;31.50;;;22.20;;
34234;SDS011;20500;49.856;20.290;2022-11-15T13:38:28;31.00;;;21.20;;
34234;SDS011;20500;49.856;20.290;2022-11-15T13:41:36;29.50;;;20.10;;
34234;SDS011;20500;49.856;20.290;2022-11-15T13:44:55;28.20;;;20.50;;
34234;SDS011;20500;49.856;20.290;2022-11-15T13:48:02;27.60;;;19.60;;
34234;SDS011;20500;49.856;20.290;2022-11-15T13:51:14;29.20;;;20.00;;
34234;SDS011;20500;49.856;20.290;2022-11-15T13:54:23;36.50;;;27.10;;
34234;SDS011;20500;49.856;20.290;2022-11-15T13:57:35;32.30;;;22.40;;
34234;SDS011;20500;49.856;20.290;2022-11-15T14:00:46;28.90;;;20.80;;
34234;SDS011;20500;49.856;20.290;2022-11-15T14:04:01;28.90;;;20.50;;
34234;SDS011;20500;49.856;20.290;2022-11-15T14:07:15;29.30;;;20.10;;
34234;SDS011;20500;49.856;20.290;2022-11-15T14:10:26;26.00;;;19.90;;
34234;SDS011;20500;49.856;20.290;2022-11-15T14:13:34;27.60;;;20.00;;
34234;SDS011;20500;49.856;20.290;2022-11-15T14:16:40;29.30;;;21.10;;
34234;SDS011;20500;49.856;20.290;2022-11-15T14:19:47;29.70;;;20.20;;
34234;SDS011;20500;49.856;20.290;2022-11-15T14:22:54;27.30;;;19.20;;
34234;SDS011;20500;49.856;20.290;2022-11-15T14:26:01;28.40;;;20.00;;
34234;SDS011;20500;49.856;20.290;2022-11-15T14:29:22;25.50;;;19.10;;
34234;SDS011;20500;49.856;20.290;2022-11-15T14:32:36;29.30;;;22.20;;
34234;SDS011;20500;49.856;20.290;2022-11-15T14:35:47;28.40;;;21.30;;
34234;SDS011;20500;49.856;20.290;2022-11-15T14:38:53;33.20;;;24.10;;
34234;SDS011;20500;49.856;20.290;2022-11-15T14:41:58;32.80;;;23.30;;
34234;SDS011;20500;49.856;20.290;2022-11-15T14:45:05;29.70;;;22.50;;
34234;SDS011;20500;49.856;20.290;2022-11-15T14:48:17;31.80;;;21.80;;
34234;SDS011;20500;49.856;20.290;2022-11-15T14:51:23;33.40;;;23.60;;
34234;SDS011;20500;49.856;20.290;2022-11-15T14:54:28;35.10;;;24.40;;
34234;SDS011;20500;49.856;20.290;2022-11-15T14:57:34;39.10;;;24.90;;
34234;SDS011;20500;49.856;20.290;2022-11-15T15:00:40;37.10;;;26.40;;
34234;SDS011;20500;49.856;20.290;2022-11-15T15:03:46;40.10;;;25.70;;
34234;SDS011;20500;49.856;20.290;2022-11-15T15:06:54;37.90;;;25.30;;
34234;SDS011;20500;49.856;20.290;2022-11-15T15:10:00;39.10;;;25.40;;
34234;SDS011;20500;49.856;20.290;2022-11-15T15:16:31;37.80;;;24.00;;
34234;SDS011;20500;49.856;20.290;2022-11-15T15:19:37;35.40;;;25.40;;
34234;SDS011;20500;49.856;20.290;2022-11-15T15:22:42;38.90;;;25.80;;
34234;SDS011;20500;49.856;20.290;2022-11-15T15:25:48;33.40;;;23.90;;
34234;SDS011;20500;49.856;20.290;2022-11-15T15:28:55;34.00;;;25.00;;
34234;SDS011;20500;49.856;20.290;2022-11-15T15:32:01;36.50;;;25.60;;
34234;SDS011;20500;49.856;20.290;2022-11-15T15:35:07;37.90;;;26.20;;
34234;SDS011;20500;49.856;20.290;2022-11-15T15:38:15;33.60;;;24.50;;
34234;SDS011;20500;49.856;20.290;2022-11-15T15:41:20;35.10;;;24.10;;
34234;SDS011;20500;49.856;20.290;2022-11-15T15:44:27;38.60;;;26.90;;
34234;SDS011;20500;49.856;20.290;2022-11-15T15:47:32;49.50;;;38.90;;
34234;SDS011;20500;49.856;20.290;2022-11-15T15:50:38;32.60;;;22.90;;
34234;SDS011;20500;49.856;20.290;2022-11-15T15:53:45;31.70;;;22.30;;
34234;SDS011;20500;49.856;20.290;2022-11-15T15:56:53;31.30;;;22.10;;
34234;SDS011;20500;49.856;20.290;2022-11-15T15:59:59;33.00;;;23.50;;
34234;SDS011;20500;49.856;20.290;2022-11-15T16:03:04;33.40;;;23.90;;
34234;SDS011;20500;49.856;20.290;2022-11-15T16:09:39;33.00;;;24.60;;
34234;SDS011;20500;49.856;20.290;2022-11-15T16:13:02;32.20;;;23.40;;
34234;SDS011;20500;49.856;20.290;2022-11-15T16:16:09;34.50;;;24.00;;
34234;SDS011;20500;49.856;20.290;2022-11-15T16:19:18;35.10;;;23.70;;
34234;SDS011;20500;49.856;20.290;2022-11-15T16:22:23;34.70;;;24.10;;
34234;SDS011;20500;49.856;20.290;2022-11-15T16:25:32;31.90;;;22.80;;
34234;SDS011;20500;49.856;20.290;2022-11-15T16:28:41;34.30;;;24.50;;
34234;SDS011;20500;49.856;20.290;2022-11-15T16:31:47;32.50;;;24.10;;
34234;SDS011;20500;49.856;20.290;2022-11-15T16:34:53;35.80;;;25.70;;
34234;SDS011;20500;49.856;20.290;2022-11-15T16:37:58;42.40;;;31.10;;
34234;SDS011;20500;49.856;20.290;2022-11-15T16:41:04;37.50;;;28.50;;
34234;SDS011;20500;49.856;20.290;2022-11-15T16:44:10;37.60;;;27.10;;
34234;SDS011;20500;49.856;20.290;2022-11-15T16:47:16;37.40;;;26.30;;
34234;SDS011;20500;49.856;20.290;2022-11-15T16:50:23;34.00;;;23.60;;
34234;SDS011;20500;49.856;20.290;2022-11-15T16:53:30;34.60;;;25.90;;
34234;SDS011;20500;49.856;20.290;2022-11-15T16:56:36;38.10;;;27.90;;
34234;SDS011;20500;49.856;20.290;2022-11-15T16:59:43;36.30;;;26.20;;
34234;SDS011;20500;49.856;20.290;2022-11-15T17:02:49;35.90;;;26.50;;
34234;SDS011;20500;49.856;20.290;2022-11-15T17:05:57;38.30;;;26.90;;
34234;SDS011;20500;49.856;20.290;2022-11-15T17:09:03;36.90;;;26.90;;
34234;SDS011;20500;49.856;20.290;2022-11-15T17:12:09;39.20;;;26.90;;
34234;SDS011;20500;49.856;20.290;2022-11-15T17:15:16;37.00;;;27.10;;
34234;SDS011;20500;49.856;20.290;2022-11-15T17:21:26;45.90;;;33.90;;
34234;SDS011;20500;49.856;20.290;2022-11-15T17:24:35;42.80;;;30.50;;
34234;SDS011;20500;49.856;20.290;2022-11-15T17:27:41;40.80;;;30.40;;
34234;SDS011;20500;49.856;20.290;2022-11-15T17:30:46;25.50;;;19.70;;
34234;SDS011;20500;49.856;20.290;2022-11-15T17:33:52;33.90;;;24.80;;
34234;SDS011;20500;49.856;20.290;2022-11-15T17:36:58;32.30;;;22.50;;
34234;SDS011;20500;49.856;20.290;2022-11-15T17:40:04;34.60;;;24.50;;
34234;SDS011;20500;49.856;20.290;2022-11-15T17:43:11;32.40;;;23.00;;
34234;SDS011;20500;49.856;20.290;2022-11-15T17:46:19;41.90;;;32.80;;
34234;SDS011;20500;49.856;20.290;2022-11-15T17:49:25;60.70;;;51.50;;
34234;SDS011;20500;49.856;20.290;2022-11-15T17:52:31;65.50;;;51.90;;
34234;SDS011;20500;49.856;20.290;2022-11-15T17:55:36;49.80;;;35.00;;
34234;SDS011;20500;49.856;20.290;2022-11-15T17:58:45;38.50;;;27.40;;
34234;SDS011;20500;49.856;20.290;2022-11-15T18:01:52;55.00;;;35.40;;
34234;SDS011;20500;49.856;20.290;2022-11-15T18:04:58;50.00;;;33.20;;
34234;SDS011;20500;49.856;20.290;2022-11-15T18:08:05;43.40;;;30.80;;
34234;SDS011;20500;49.856;20.290;2022-11-15T18:11:17;42.50;;;29.20;;
34234;SDS011;20500;49.856;20.290;2022-11-15T18:14:25;47.50;;;34.30;;
34234;SDS011;20500;49.856;20.290;2022-11-15T18:17:30;38.70;;;27.40;;
34234;SDS011;20500;49.856;20.290;2022-11-15T18:20:36;42.00;;;27.40;;
34234;SDS011;20500;49.856;20.290;2022-11-15T18:23:42;38.00;;;24.70;;
34234;SDS011;20500;49.856;20.290;2022-11-15T18:29:53;42.40;;;29.70;;
34234;SDS011;20500;49.856;20.290;2022-11-15T18:32:58;46.80;;;32.40;;
34234;SDS011;20500;49.856;20.290;2022-11-15T18:36:05;52.60;;;39.50;;
34234;SDS011;20500;49.856;20.290;2022-11-15T18:39:14;56.20;;;41.20;;
34234;SDS011;20500;49.856;20.290;2022-11-15T18:42:20;52.70;;;38.30;;
34234;SDS011;20500;49.856;20.290;2022-11-15T18:45:25;53.80;;;38.60;;
34234;SDS011;20500;49.856;20.290;2022-11-15T18:48:31;61.00;;;44.90;;
34234;SDS011;20500;49.856;20.290;2022-11-15T18:51:38;61.10;;;43.30;;
34234;SDS011;20500;49.856;20.290;2022-11-15T18:54:44;55.00;;;40.30;;